Terminal Aerodrome Forecast
Issued by NWS

Home | Current Version | Previous Version | Text Only | Print | Product List | Glossary Off
Versions: 1 2 3 4 5 6 7 8 9 10 11 12 13 14 15 16 17 18 19 20 21 22 23 24 25 26 27

000
FTUS43 KPAH 271137
TAFOWB
TAF
KOWB 271137Z 2712/2812 VRB03KT P6SM VCTS SCT030CB BKN100
      TEMPO 2712/2713 3SM -TSRA BR BKN025CB
     FM271500 24005KT P6SM SCT100
     FM271900 23005KT P6SM VCTS SCT035CB BKN100
     FM280100 00000KT P6SM SCT250
      TEMPO 2808/2812 4SM BR=

USA.gov is the U.S. government's official web portal to all federal, state and local government web resources and services.